sensor_id;sensor_type;location;lat;lon;timestamp;pressure;altitude;pressure_sealevel;temperature;humidity
13734;BME280;43298;52.560;13.508;2024-03-23T00:53:55;98146.56;;;8.00;100.00
13734;BME280;43298;52.560;13.508;2024-03-23T00:56:21;98141.75;;;7.96;100.00
13734;BME280;43298;52.560;13.508;2024-03-23T00:58:46;98143.53;;;7.95;100.00
13734;BME280;43298;52.560;13.508;2024-03-23T01:01:12;98143.53;;;7.95;100.00
13734;BME280;43298;52.560;13.508;2024-03-23T01:03:38;98131.59;;;7.94;100.00
13734;BME280;43298;52.560;13.508;2024-03-23T01:06:04;98128.09;;;7.95;100.00
13734;BME280;43298;52.560;13.508;2024-03-23T01:08:30;98126.47;;;7.94;100.00
13734;BME280;43298;52.560;13.508;2024-03-23T01:11:00;98124.09;;;7.91;100.00
13734;BME280;43298;52.560;13.508;2024-03-23T01:13:27;98126.56;;;7.93;100.00
13734;BME280;43298;52.560;13.508;2024-03-23T01:15:54;98132.63;;;7.92;100.00
13734;BME280;43298;52.560;13.508;2024-03-23T01:18:22;98130.06;;;7.92;100.00
13734;BME280;43298;52.560;13.508;2024-03-23T01:20:48;98119.66;;;7.93;100.00
13734;BME280;43298;52.560;13.508;2024-03-23T01:23:14;98117.41;;;7.89;100.00
13734;BME280;43298;52.560;13.508;2024-03-23T01:25:40;98117.28;;;7.90;100.00
13734;BME280;43298;52.560;13.508;2024-03-23T01:28:07;98117.28;;;7.90;100.00
13734;BME280;43298;52.560;13.508;2024-03-23T01:30:33;98116.72;;;7.87;100.00
13734;BME280;43298;52.560;13.508;2024-03-23T01:32:59;98112.41;;;7.87;100.00
13734;BME280;43298;52.560;13.508;2024-03-23T01:35:25;98104.78;;;7.86;100.00
13734;BME280;43298;52.560;13.508;2024-03-23T01:37:51;98106.31;;;7.88;100.00
13734;BME280;43298;52.560;13.508;2024-03-23T01:40:17;98089.09;;;7.89;100.00
13734;BME280;43298;52.560;13.508;2024-03-23T01:42:54;98083.84;;;7.90;100.00
13734;BME280;43298;52.560;13.508;2024-03-23T01:45:20;98078.59;;;7.92;100.00
13734;BME280;43298;52.560;13.508;2024-03-23T01:47:46;98066.78;;;7.89;100.00
13734;BME280;43298;52.560;13.508;2024-03-23T01:50:13;98053.22;;;7.87;100.00
13734;BME280;43298;52.560;13.508;2024-03-23T01:52:39;98045.00;;;7.82;100.00
13734;BME280;43298;52.560;13.508;2024-03-23T01:55:05;98041.50;;;7.83;100.00
13734;BME280;43298;52.560;13.508;2024-03-23T01:57:31;98042.31;;;7.84;100.00
13734;BME280;43298;52.560;13.508;2024-03-23T01:59:56;98043.16;;;7.84;100.00
13734;BME280;43298;52.560;13.508;2024-03-23T02:02:22;98039.75;;;7.84;100.00
13734;BME280;43298;52.560;13.508;2024-03-23T02:04:48;98035.44;;;7.84;100.00
13734;BME280;43298;52.560;13.508;2024-03-23T02:07:14;98042.22;;;7.85;100.00
13734;BME280;43298;52.560;13.508;2024-03-23T02:09:40;98035.31;;;7.86;100.00
13734;BME280;43298;52.560;13.508;2024-03-23T02:12:06;98029.47;;;7.84;100.00
13734;BME280;43298;52.560;13.508;2024-03-23T02:14:32;98035.31;;;7.86;100.00
13734;BME280;43298;52.560;13.508;2024-03-23T02:16:58;98030.19;;;7.86;100.00
13734;BME280;43298;52.560;13.508;2024-03-23T02:19:24;98025.16;;;7.84;100.00
13734;BME280;43298;52.560;13.508;2024-03-23T02:21:50;98026.88;;;7.84;100.00
13734;BME280;43298;52.560;13.508;2024-03-23T02:24:15;98023.50;;;7.83;100.00
13734;BME280;43298;52.560;13.508;2024-03-23T02:26:41;98026.78;;;7.85;100.00
13734;BME280;43298;52.560;13.508;2024-03-23T02:29:07;98020.69;;;7.86;100.00
13734;BME280;43298;52.560;13.508;2024-03-23T02:31:35;98008.78;;;7.85;100.00
13734;BME280;43298;52.560;13.508;2024-03-23T02:34:01;98006.09;;;7.87;100.00
13734;BME280;43298;52.560;13.508;2024-03-23T02:36:27;98011.47;;;7.84;100.00
13734;BME280;43298;52.560;13.508;2024-03-23T02:38:53;97997.66;;;7.85;100.00
13734;BME280;43298;52.560;13.508;2024-03-23T02:41:19;97990.75;;;7.85;100.00
13734;BME280;43298;52.560;13.508;2024-03-23T02:43:51;97979.75;;;7.83;100.00
13734;BME280;43298;52.560;13.508;2024-03-23T02:46:17;97977.31;;;7.82;100.00
13734;BME280;43298;52.560;13.508;2024-03-23T02:48:43;97967.16;;;7.80;100.00
13734;BME280;43298;52.560;13.508;2024-03-23T02:51:09;97967.94;;;7.81;100.00
13734;BME280;43298;52.560;13.508;2024-03-23T02:53:35;97966.91;;;7.83;100.00
13734;BME280;43298;52.560;13.508;2024-03-23T02:56:01;97956.50;;;7.85;100.00
13734;BME280;43298;52.560;13.508;2024-03-23T02:58:27;97965.25;;;7.82;100.00
13734;BME280;43298;52.560;13.508;2024-03-23T03:00:52;97958.59;;;7.80;100.00
13734;BME280;43298;52.560;13.508;2024-03-23T03:03:18;97971.56;;;7.78;100.00
13734;BME280;43298;52.560;13.508;2024-03-23T03:05:44;97968.88;;;7.80;100.00
13734;BME280;43298;52.560;13.508;2024-03-23T03:08:10;97971.25;;;7.83;100.00
13734;BME280;43298;52.560;13.508;2024-03-23T03:10:35;97963.41;;;7.84;100.00
13734;BME280;43298;52.560;13.508;2024-03-23T03:13:02;97955.81;;;7.83;100.00
13734;BME280;43298;52.560;13.508;2024-03-23T03:15:28;97948.19;;;7.81;100.00
13734;BME280;43298;52.560;13.508;2024-03-23T03:17:54;97959.44;;;7.80;100.00
13734;BME280;43298;52.560;13.508;2024-03-23T03:20:20;97962.00;;;7.80;100.00
13734;BME280;43298;52.560;13.508;2024-03-23T03:22:47;97960.56;;;7.76;100.00
13734;BME280;43298;52.560;13.508;2024-03-23T03:25:13;97954.50;;;7.77;100.00
13734;BME280;43298;52.560;13.508;2024-03-23T03:27:39;97950.28;;;7.76;100.00
13734;BME280;43298;52.560;13.508;2024-03-23T03:30:05;97949.59;;;7.74;100.00
13734;BME280;43298;52.560;13.508;2024-03-23T03:32:33;97953.00;;;7.75;100.00
13734;BME280;43298;52.560;13.508;2024-03-23T03:34:59;97956.84;;;7.69;100.00
13734;BME280;43298;52.560;13.508;2024-03-23T03:37:25;97944.22;;;7.66;100.00
13734;BME280;43298;52.560;13.508;2024-03-23T03:39:51;97939.41;;;7.62;100.00
13734;BME280;43298;52.560;13.508;2024-03-23T03:42:16;97944.03;;;7.57;100.00
13734;BME280;43298;52.560;13.508;2024-03-23T03:44:42;97941.00;;;7.52;100.00
13734;BME280;43298;52.560;13.508;2024-03-23T03:47:08;97947.19;;;7.49;100.00
13734;BME280;43298;52.560;13.508;2024-03-23T03:49:34;97948.16;;;7.48;100.00
13734;BME280;43298;52.560;13.508;2024-03-23T03:51:59;97950.00;;;7.46;100.00
13734;BME280;43298;52.560;13.508;2024-03-23T03:54:26;97946.94;;;7.41;100.00
13734;BME280;43298;52.560;13.508;2024-03-23T03:56:52;97945.28;;;7.40;100.00
13734;BME280;43298;52.560;13.508;2024-03-23T03:59:18;97958.16;;;7.40;100.00
13734;BME280;43298;52.560;13.508;2024-03-23T04:01:46;97960.81;;;7.39;100.00
13734;BME280;43298;52.560;13.508;2024-03-23T04:04:11;97954.88;;;7.38;100.00
13734;BME280;43298;52.560;13.508;2024-03-23T04:06:37;97949.97;;;7.35;100.00
13734;BME280;43298;52.560;13.508;2024-03-23T04:09:03;97949.34;;;7.32;100.00
13734;BME280;43298;52.560;13.508;2024-03-23T04:11:29;97945.97;;;7.31;100.00
13734;BME280;43298;52.560;13.508;2024-03-23T04:13:55;97946.53;;;7.24;100.00
13734;BME280;43298;52.560;13.508;2024-03-23T04:16:34;97947.25;;;7.26;100.00
13734;BME280;43298;52.560;13.508;2024-03-23T04:19:00;97955.66;;;7.28;100.00
13734;BME280;43298;52.560;13.508;2024-03-23T04:21:26;97952.28;;;7.27;100.00
13734;BME280;43298;52.560;13.508;2024-03-23T04:23:52;97952.72;;;7.21;100.00
13734;BME280;43298;52.560;13.508;2024-03-23T04:26:17;97967.38;;;7.08;100.00
13734;BME280;43298;52.560;13.508;2024-03-23T04:28:43;97972.56;;;6.96;100.00
13734;BME280;43298;52.560;13.508;2024-03-23T04:31:10;97983.59;;;6.85;100.00
13734;BME280;43298;52.560;13.508;2024-03-23T04:33:35;97988.22;;;6.80;100.00
13734;BME280;43298;52.560;13.508;2024-03-23T04:36:01;97990.78;;;6.80;100.00
13734;BME280;43298;52.560;13.508;2024-03-23T04:38:28;97983.22;;;6.79;100.00
13734;BME280;43298;52.560;13.508;2024-03-23T04:40:58;97968.25;;;6.73;100.00
13734;BME280;43298;52.560;13.508;2024-03-23T04:43:25;97979.56;;;6.70;100.00
13734;BME280;43298;52.560;13.508;2024-03-23T04:45:51;97985.38;;;6.72;100.00
13734;BME280;43298;52.560;13.508;2024-03-23T04:48:21;97975.31;;;6.69;100.00
13734;BME280;43298;52.560;13.508;2024-03-23T04:50:54;97969.38;;;6.69;100.00
13734;BME280;43298;52.560;13.508;2024-03-23T04:53:20;97961.59;;;6.70;100.00
13734;BME280;43298;52.560;13.508;2024-03-23T04:55:45;97959.53;;;6.63;100.00
13734;BME280;43298;52.560;13.508;2024-03-23T04:58:11;97965.91;;;6.57;100.00
13734;BME280;43298;52.560;13.508;2024-03-23T05:00:37;97957.38;;;6.57;100.00
13734;BME280;43298;52.560;13.508;2024-03-23T05:03:03;97951.47;;;6.56;100.00
13734;BME280;43298;52.560;13.508;2024-03-23T05:05:29;97952.69;;;6.51;100.00
13734;BME280;43298;52.560;13.508;2024-03-23T05:07:55;97959.78;;;6.47;100.00
13734;BME280;43298;52.560;13.508;2024-03-23T05:10:21;97965.13;;;6.44;100.00
13734;BME280;43298;52.560;13.508;2024-03-23T05:12:47;97968.41;;;6.46;100.00
13734;BME280;43298;52.560;13.508;2024-03-23T05:15:13;97967.59;;;6.46;100.00
13734;BME280;43298;52.560;13.508;2024-03-23T05:17:39;97962.44;;;6.46;100.00
13734;BME280;43298;52.560;13.508;2024-03-23T05:20:05;97964.63;;;6.39;100.00
13734;BME280;43298;52.560;13.508;2024-03-23T05:22:36;97964.63;;;6.39;100.00
13734;BME280;43298;52.560;13.508;2024-03-23T05:25:02;97955.09;;;6.41;100.00
13734;BME280;43298;52.560;13.508;2024-03-23T05:27:32;97956.72;;;6.42;100.00
13734;BME280;43298;52.560;13.508;2024-03-23T05:29:58;97948.31;;;6.40;100.00
13734;BME280;43298;52.560;13.508;2024-03-23T05:32:24;97946.16;;;6.47;100.00
13734;BME280;43298;52.560;13.508;2024-03-23T05:34:50;97946.75;;;6.50;100.00
13734;BME280;43298;52.560;13.508;2024-03-23T05:37:24;97942.53;;;6.49;100.00
13734;BME280;43298;52.560;13.508;2024-03-23T05:39:50;97942.44;;;6.51;100.00
13734;BME280;43298;52.560;13.508;2024-03-23T05:42:17;97945.69;;;6.53;100.00
13734;BME280;43298;52.560;13.508;2024-03-23T05:44:47;97929.41;;;6.54;100.00
13734;BME280;43298;52.560;13.508;2024-03-23T05:47:13;97923.91;;;6.58;100.00
13734;BME280;43298;52.560;13.508;2024-03-23T05:49:40;97917.25;;;6.56;100.00
13734;BME280;43298;52.560;13.508;2024-03-23T05:52:08;97912.50;;;6.62;100.00
13734;BME280;43298;52.560;13.508;2024-03-23T05:54:35;97915.72;;;6.53;100.00
13734;BME280;43298;52.560;13.508;2024-03-23T05:57:01;97913.16;;;6.53;100.00
13734;BME280;43298;52.560;13.508;2024-03-23T05:59:27;97901.63;;;6.59;100.00
13734;BME280;43298;52.560;13.508;2024-03-23T06:01:53;97901.63;;;6.59;100.00
13734;BME280;43298;52.560;13.508;2024-03-23T06:04:19;97906.97;;;6.56;100.00
13734;BME280;43298;52.560;13.508;2024-03-23T06:06:45;97906.66;;;6.60;100.00
13734;BME280;43298;52.560;13.508;2024-03-23T06:09:11;97895.25;;;6.64;100.00
13734;BME280;43298;52.560;13.508;2024-03-23T06:11:37;97890.00;;;6.66;100.00
13734;BME280;43298;52.560;13.508;2024-03-23T06:14:03;97886.19;;;6.71;100.00
13734;BME280;43298;52.560;13.508;2024-03-23T06:16:29;97872.41;;;6.72;100.00
13734;BME280;43298;52.560;13.508;2024-03-23T06:18:56;97876.84;;;6.70;100.00
13734;BME280;43298;52.560;13.508;2024-03-23T06:21:22;97863.34;;;6.79;100.00
13734;BME280;43298;52.560;13.508;2024-03-23T06:23:52;97854.94;;;6.77;100.00
13734;BME280;43298;52.560;13.508;2024-03-23T06:26:21;97843.03;;;6.87;100.00
13734;BME280;43298;52.560;13.508;2024-03-23T06:28:47;97836.78;;;6.91;100.00
13734;BME280;43298;52.560;13.508;2024-03-23T06:31:13;97842.34;;;6.85;100.00
13734;BME280;43298;52.560;13.508;2024-03-23T06:33:39;97851.00;;;6.84;100.00
13734;BME280;43298;52.560;13.508;2024-03-23T06:36:11;97833.84;;;6.96;100.00
13734;BME280;43298;52.560;13.508;2024-03-23T06:38:38;97837.72;;;7.01;100.00
13734;BME280;43298;52.560;13.508;2024-03-23T06:41:05;97836.81;;;7.02;100.00
13734;BME280;43298;52.560;13.508;2024-03-23T06:43:31;97840.88;;;6.94;100.00
13734;BME280;43298;52.560;13.508;2024-03-23T06:45:57;97842.50;;;6.95;100.00
13734;BME280;43298;52.560;13.508;2024-03-23T06:48:22;97820.91;;;7.08;100.00
13734;BME280;43298;52.560;13.508;2024-03-23T06:50:49;97812.66;;;7.16;100.00
13734;BME280;43298;52.560;13.508;2024-03-23T06:53:15;97807.97;;;7.10;100.00
13734;BME280;43298;52.560;13.508;2024-03-23T06:55:41;97808.34;;;7.16;100.00
13734;BME280;43298;52.560;13.508;2024-03-23T06:58:08;97808.91;;;7.20;100.00
13734;BME280;43298;52.560;13.508;2024-03-23T07:00:34;97806.97;;;7.23;100.00
13734;BME280;43298;52.560;13.508;2024-03-23T07:03:00;97788.81;;;7.25;100.00
13734;BME280;43298;52.560;13.508;2024-03-23T07:05:26;97797.25;;;7.16;100.00
13734;BME280;43298;52.560;13.508;2024-03-23T07:07:52;97809.47;;;7.12;100.00
13734;BME280;43298;52.560;13.508;2024-03-23T07:10:18;97806.81;;;7.14;100.00
13734;BME280;43298;52.560;13.508;2024-03-23T07:12:43;97796.91;;;7.20;100.00
13734;BME280;43298;52.560;13.508;2024-03-23T07:15:09;97796.19;;;7.18;100.00
13734;BME280;43298;52.560;13.508;2024-03-23T07:17:35;97800.63;;;7.16;100.00
13734;BME280;43298;52.560;13.508;2024-03-23T07:20:05;97803.78;;;7.20;100.00
13734;BME280;43298;52.560;13.508;2024-03-23T07:22:31;97798.53;;;7.21;100.00
13734;BME280;43298;52.560;13.508;2024-03-23T07:25:00;97811.25;;;7.23;100.00
13734;BME280;43298;52.560;13.508;2024-03-23T07:27:26;97816.97;;;7.15;100.00
13734;BME280;43298;52.560;13.508;2024-03-23T07:29:52;97815.44;;;7.13;100.00
13734;BME280;43298;52.560;13.508;2024-03-23T07:32:18;97813.50;;;7.16;100.00
13734;BME280;43298;52.560;13.508;2024-03-23T07:34:44;97807.63;;;7.14;100.00
13734;BME280;43298;52.560;13.508;2024-03-23T07:37:13;97807.63;;;7.14;100.00
13734;BME280;43298;52.560;13.508;2024-03-23T07:39:39;97803.66;;;7.21;100.00
13734;BME280;43298;52.560;13.508;2024-03-23T07:42:06;97809.53;;;7.23;100.00
13734;BME280;43298;52.560;13.508;2024-03-23T07:44:32;97818.97;;;7.23;100.00
13734;BME280;43298;52.560;13.508;2024-03-23T07:47:00;97808.34;;;7.27;100.00
13734;BME280;43298;52.560;13.508;2024-03-23T07:49:26;97808.91;;;7.20;100.00
13734;BME280;43298;52.560;13.508;2024-03-23T07:51:52;97809.75;;;7.20;100.00
13734;BME280;43298;52.560;13.508;2024-03-23T07:54:18;97820.03;;;7.20;100.00
13734;BME280;43298;52.560;13.508;2024-03-23T07:56:44;97827.97;;;7.17;100.00
13734;BME280;43298;52.560;13.508;2024-03-23T07:59:10;97829.69;;;7.06;100.00
13734;BME280;43298;52.560;13.508;2024-03-23T08:01:36;97835.88;;;7.03;100.00
13734;BME280;43298;52.560;13.508;2024-03-23T08:04:02;97843.31;;;6.95;100.00
13734;BME280;43298;52.560;13.508;2024-03-23T08:06:28;97855.88;;;6.87;100.00
13734;BME280;43298;52.560;13.508;2024-03-23T08:08:58;97860.34;;;6.85;100.00
13734;BME280;43298;52.560;13.508;2024-03-23T08:11:27;97861.69;;;6.78;100.00
13734;BME280;43298;52.560;13.508;2024-03-23T08:13:53;97866.94;;;6.77;100.00
13734;BME280;43298;52.560;13.508;2024-03-23T08:16:20;97877.28;;;6.64;100.00
13734;BME280;43298;52.560;13.508;2024-03-23T08:18:45;97879.84;;;6.64;100.00
13734;BME280;43298;52.560;13.508;2024-03-23T08:21:12;97886.72;;;6.64;100.00
13734;BME280;43298;52.560;13.508;2024-03-23T08:23:38;97884.75;;;6.67;100.00
13734;BME280;43298;52.560;13.508;2024-03-23T08:26:12;97878.16;;;6.76;100.00
13734;BME280;43298;52.560;13.508;2024-03-23T08:28:38;97871.59;;;6.72;100.00
13734;BME280;43298;52.560;13.508;2024-03-23T08:31:09;97882.53;;;6.63;100.00
13734;BME280;43298;52.560;13.508;2024-03-23T08:33:36;97882.53;;;6.63;100.00
13734;BME280;43298;52.560;13.508;2024-03-23T08:36:04;97884.97;;;6.64;100.00
13734;BME280;43298;52.560;13.508;2024-03-23T08:38:30;97892.06;;;6.61;100.00
13734;BME280;43298;52.560;13.508;2024-03-23T08:41:07;97898.59;;;6.54;100.00
13734;BME280;43298;52.560;13.508;2024-03-23T08:43:36;97913.38;;;6.50;100.00
13734;BME280;43298;52.560;13.508;2024-03-23T08:48:45;97906.00;;;6.46;100.00
13734;BME280;43298;52.560;13.508;2024-03-23T08:51:16;97909.22;;;6.37;100.00
13734;BME280;43298;52.560;13.508;2024-03-23T08:53:43;97932.00;;;6.28;100.00
13734;BME280;43298;52.560;13.508;2024-03-23T08:56:10;97937.84;;;6.31;100.00
13734;BME280;43298;52.560;13.508;2024-03-23T08:58:37;97941.34;;;6.30;100.00
13734;BME280;43298;52.560;13.508;2024-03-23T09:01:08;97945.25;;;6.35;100.00
13734;BME280;43298;52.560;13.508;2024-03-23T09:03:35;97946.78;;;6.38;100.00
13734;BME280;43298;52.560;13.508;2024-03-23T09:06:06;97950.16;;;6.38;100.00
13734;BME280;43298;52.560;13.508;2024-03-23T09:08:32;97956.53;;;6.33;100.00
13734;BME280;43298;52.560;13.508;2024-03-23T09:11:00;97957.56;;;6.30;100.00
13734;BME280;43298;52.560;13.508;2024-03-23T09:13:28;97969.47;;;6.31;100.00
13734;BME280;43298;52.560;13.508;2024-03-23T09:15:54;97973.78;;;6.31;100.00
13734;BME280;43298;52.560;13.508;2024-03-23T09:18:22;97973.59;;;6.21;100.00
13734;BME280;43298;52.560;13.508;2024-03-23T09:20:48;97993.59;;;6.03;100.00
13734;BME280;43298;52.560;13.508;2024-03-23T09:23:13;98014.25;;;5.89;100.00
13734;BME280;43298;52.560;13.508;2024-03-23T09:25:40;98024.06;;;5.83;100.00
13734;BME280;43298;52.560;13.508;2024-03-23T09:28:07;98031.47;;;5.87;100.00
13734;BME280;43298;52.560;13.508;2024-03-23T09:30:35;98041.91;;;5.84;100.00
13734;BME280;43298;52.560;13.508;2024-03-23T09:33:02;98049.25;;;5.76;100.00
13734;BME280;43298;52.560;13.508;2024-03-23T09:35:28;98049.53;;;5.72;100.00
13734;BME280;43298;52.560;13.508;2024-03-23T09:37:54;98050.09;;;5.77;100.00
13734;BME280;43298;52.560;13.508;2024-03-23T09:40:20;98054.13;;;5.81;100.00
13734;BME280;43298;52.560;13.508;2024-03-23T09:42:50;98056.84;;;5.78;100.00
13734;BME280;43298;52.560;13.508;2024-03-23T09:45:21;98071.19;;;5.68;100.00
13734;BME280;43298;52.560;13.508;2024-03-23T09:47:47;98070.84;;;5.60;100.00
13734;BME280;43298;52.560;13.508;2024-03-23T09:50:14;98083.97;;;5.55;100.00
13734;BME280;43298;52.560;13.508;2024-03-23T09:52:40;98082.22;;;5.56;100.00
13734;BME280;43298;52.560;13.508;2024-03-23T09:55:08;98090.09;;;5.53;100.00
13734;BME280;43298;52.560;13.508;2024-03-23T09:57:35;98103.13;;;5.50;100.00
13734;BME280;43298;52.560;13.508;2024-03-23T10:00:02;98117.66;;;5.49;100.00
13734;BME280;43298;52.560;13.508;2024-03-23T10:02:29;98131.16;;;5.39;100.00
13734;BME280;43298;52.560;13.508;2024-03-23T10:04:55;98136.38;;;5.37;100.00
13734;BME280;43298;52.560;13.508;2024-03-23T10:07:22;98150.19;;;5.35;100.00
13734;BME280;43298;52.560;13.508;2024-03-23T10:09:48;98151.31;;;5.31;100.00
13734;BME280;43298;52.560;13.508;2024-03-23T10:12:19;98175.25;;;5.30;100.00
13734;BME280;43298;52.560;13.508;2024-03-23T10:14:45;98182.78;;;5.19;100.00
13734;BME280;43298;52.560;13.508;2024-03-23T10:17:16;98195.41;;;5.08;100.00
13734;BME280;43298;52.560;13.508;2024-03-23T10:19:46;98219.84;;;4.99;100.00
13734;BME280;43298;52.560;13.508;2024-03-23T10:22:17;98238.75;;;4.97;100.00
13734;BME280;43298;52.560;13.508;2024-03-23T10:24:43;98236.22;;;4.97;100.00
13734;BME280;43298;52.560;13.508;2024-03-23T10:27:09;98230.06;;;4.99;100.00
13734;BME280;43298;52.560;13.508;2024-03-23T10:29:35;98229.91;;;5.02;100.00
13734;BME280;43298;52.560;13.508;2024-03-23T10:32:11;98231.28;;;5.08;100.00
13734;BME280;43298;52.560;13.508;2024-03-23T10:34:38;98242.78;;;5.01;100.00
13734;BME280;43298;52.560;13.508;2024-03-23T10:37:05;98242.78;;;5.01;100.00
13734;BME280;43298;52.560;13.508;2024-03-23T10:39:40;98254.88;;;4.99;100.00
13734;BME280;43298;52.560;13.508;2024-03-23T10:42:09;98254.66;;;5.02;100.00
13734;BME280;43298;52.560;13.508;2024-03-23T10:44:39;98260.28;;;5.08;100.00
13734;BME280;43298;52.560;13.508;2024-03-23T10:47:05;98258.44;;;5.10;100.00
13734;BME280;43298;52.560;13.508;2024-03-23T10:49:33;98267.13;;;5.08;100.00
13734;BME280;43298;52.560;13.508;2024-03-23T10:52:01;98260.91;;;5.12;100.00
13734;BME280;43298;52.560;13.508;2024-03-23T10:54:28;98262.44;;;5.14;100.00
13734;BME280;43298;52.560;13.508;2024-03-23T10:57:09;98271.63;;;5.18;100.00
13734;BME280;43298;52.560;13.508;2024-03-23T10:59:37;98260.09;;;5.25;100.00
13734;BME280;43298;52.560;13.508;2024-03-23T11:02:04;98256.34;;;5.31;100.00
13734;BME280;43298;52.560;13.508;2024-03-23T11:04:34;98252.88;;;5.32;100.00
13734;BME280;43298;52.560;13.508;2024-03-23T11:07:02;98268.94;;;5.34;100.00
13734;BME280;43298;52.560;13.508;2024-03-23T11:09:41;98264.56;;;5.36;100.00
13734;BME280;43298;52.560;13.508;2024-03-23T11:12:30;98253.66;;;5.46;100.00
13734;BME280;43298;52.560;13.508;2024-03-23T11:15:14;98253.03;;;5.57;100.00
13734;BME280;43298;52.560;13.508;2024-03-23T11:17:41;98247.31;;;5.66;100.00
13734;BME280;43298;52.560;13.508;2024-03-23T11:20:07;98238.56;;;5.70;100.00
13734;BME280;43298;52.560;13.508;2024-03-23T11:25:23;98238.41;;;5.85;100.00
13734;BME280;43298;52.560;13.508;2024-03-23T11:28:10;98245.94;;;5.88;100.00
13734;BME280;43298;52.560;13.508;2024-03-23T11:30:37;98243.28;;;5.90;100.00
13734;BME280;43298;52.560;13.508;2024-03-23T11:33:06;98233.16;;;6.01;100.00
13734;BME280;43298;52.560;13.508;2024-03-23T11:35:39;98224.47;;;6.16;100.00
13734;BME280;43298;52.560;13.508;2024-03-23T11:38:10;98227.91;;;6.29;100.00
13734;BME280;43298;52.560;13.508;2024-03-23T11:40:41;98231.78;;;6.22;100.00
13734;BME280;43298;52.560;13.508;2024-03-23T11:43:10;98239.88;;;6.16;100.00
13734;BME280;43298;52.560;13.508;2024-03-23T11:45:40;98228.00;;;6.28;100.00
13734;BME280;43298;52.560;13.508;2024-03-23T11:50:41;98233.28;;;6.39;100.00
13734;BME280;43298;52.560;13.508;2024-03-23T11:53:14;98231.78;;;6.61;100.00
13734;BME280;43298;52.560;13.508;2024-03-23T11:55:59;98221.34;;;6.89;100.00
13734;BME280;43298;52.560;13.508;2024-03-23T11:58:27;98225.13;;;7.09;100.00
13734;BME280;43298;52.560;13.508;2024-03-23T12:00:56;98217.50;;;7.32;100.00
13734;BME280;43298;52.560;13.508;2024-03-23T12:03:24;98213.38;;;7.42;100.00
13734;BME280;43298;52.560;13.508;2024-03-23T12:05:59;98212.88;;;7.37;100.00
13734;BME280;43298;52.560;13.508;2024-03-23T12:08:33;98214.59;;;7.49;100.00
13734;BME280;43298;52.560;13.508;2024-03-23T12:11:10;98220.34;;;7.40;100.00
13734;BME280;43298;52.560;13.508;2024-03-23T12:13:37;98231.06;;;7.34;100.00
13734;BME280;43298;52.560;13.508;2024-03-23T12:16:20;98248.34;;;7.32;100.00
13734;BME280;43298;52.560;13.508;2024-03-23T12:18:50;98271.88;;;7.14;100.00
13734;BME280;43298;52.560;13.508;2024-03-23T12:21:18;98288.22;;;7.00;100.00
13734;BME280;43298;52.560;13.508;2024-03-23T12:23:44;98296.97;;;6.98;100.00
13734;BME280;43298;52.560;13.508;2024-03-23T12:26:12;98297.16;;;6.95;100.00
13734;BME280;43298;52.560;13.508;2024-03-23T12:28:39;98295.09;;;7.00;100.00
13734;BME280;43298;52.560;13.508;2024-03-23T12:31:04;98293.38;;;7.00;100.00
13734;BME280;43298;52.560;13.508;2024-03-23T12:33:31;98299.94;;;6.92;100.00
13734;BME280;43298;52.560;13.508;2024-03-23T12:35:57;98300.97;;;6.89;100.00
13734;BME280;43298;52.560;13.508;2024-03-23T12:38:23;98291.00;;;7.10;100.00
13734;BME280;43298;52.560;13.508;2024-03-23T12:40:49;98274.97;;;7.31;100.00
13734;BME280;43298;52.560;13.508;2024-03-23T12:43:16;98257.53;;;7.60;100.00
13734;BME280;43298;52.560;13.508;2024-03-23T12:45:50;98251.13;;;7.78;100.00
13734;BME280;43298;52.560;13.508;2024-03-23T12:48:16;98239.31;;;7.99;100.00
13734;BME280;43298;52.560;13.508;2024-03-23T12:50:42;98247.72;;;8.13;100.00
13734;BME280;43298;52.560;13.508;2024-03-23T12:53:08;98242.44;;;8.27;100.00
13734;BME280;43298;52.560;13.508;2024-03-23T12:55:37;98247.19;;;8.44;100.00
13734;BME280;43298;52.560;13.508;2024-03-23T12:58:03;98242.44;;;8.62;100.00
13734;BME280;43298;52.560;13.508;2024-03-23T13:00:29;98251.91;;;8.61;100.00
13734;BME280;43298;52.560;13.508;2024-03-23T13:02:54;98274.78;;;8.42;100.00
13734;BME280;43298;52.560;13.508;2024-03-23T13:05:20;98274.41;;;8.36;100.00
13734;BME280;43298;52.560;13.508;2024-03-23T13:07:46;98277.81;;;8.36;100.00
13734;BME280;43298;52.560;13.508;2024-03-23T13:10:12;98288.38;;;8.44;100.00
13734;BME280;43298;52.560;13.508;2024-03-23T13:12:38;98289.13;;;8.57;100.00
13734;BME280;43298;52.560;13.508;2024-03-23T13:15:05;98301.31;;;8.55;100.00
13734;BME280;43298;52.560;13.508;2024-03-23T13:17:31;98320.59;;;8.50;100.00
13734;BME280;43298;52.560;13.508;2024-03-23T13:19:57;98339.59;;;8.36;100.00
13734;BME280;43298;52.560;13.508;2024-03-23T13:22:22;98368.59;;;8.27;100.00
13734;BME280;43298;52.560;13.508;2024-03-23T13:24:48;98362.13;;;8.45;100.00
13734;BME280;43298;52.560;13.508;2024-03-23T13:27:14;98352.81;;;8.55;100.00
13734;BME280;43298;52.560;13.508;2024-03-23T13:29:40;98354.19;;;8.72;100.00
13734;BME280;43298;52.560;13.508;2024-03-23T13:32:06;98372.50;;;8.56;100.00
13734;BME280;43298;52.560;13.508;2024-03-23T13:34:32;98339.91;;;9.13;100.00
13734;BME280;43298;52.560;13.508;2024-03-23T13:37:00;98304.34;;;10.07;100.00
13734;BME280;43298;52.560;13.508;2024-03-23T13:39:26;98286.97;;;10.72;100.00
13734;BME280;43298;52.560;13.508;2024-03-23T13:41:55;98293.31;;;11.20;100.00
13734;BME280;43298;52.560;13.508;2024-03-23T13:44:21;98321.38;;;11.45;100.00
13734;BME280;43298;52.560;13.508;2024-03-23T13:46:47;98377.59;;;11.22;100.00
13734;BME280;43298;52.560;13.508;2024-03-23T13:49:29;98383.13;;;11.70;100.00
13734;BME280;43298;52.560;13.508;2024-03-23T13:51:57;98435.78;;;11.48;100.00